createdAt,value
2018-07-09T00:00:49.190Z,0
2018-07-09T00:01:50.589Z,0
2018-07-09T00:02:51.969Z,0
2018-07-09T00:03:53.354Z,0
2018-07-09T00:04:54.754Z,0
2018-07-09T00:05:56.127Z,0
2018-07-09T00:06:57.519Z,0
2018-07-09T00:07:58.899Z,0
2018-07-09T00:09:00.297Z,0
2018-07-09T00:10:01.677Z,0
2018-07-09T00:11:03.077Z,0
2018-07-09T00:12:04.477Z,0
2018-07-09T00:13:05.856Z,0
2018-07-09T00:14:07.246Z,0
2018-07-09T00:15:08.633Z,0
2018-07-09T00:16:10.030Z,0
2018-07-09T00:17:11.401Z,0
2018-07-09T00:18:12.795Z,0
2018-07-09T00:19:14.176Z,0
2018-07-09T00:20:15.574Z,0
2018-07-09T00:21:16.958Z,0
2018-07-09T00:22:18.343Z,0
2018-07-09T00:23:19.729Z,0
2018-07-09T00:24:21.118Z,0
2018-07-09T00:25:22.511Z,0
2018-07-09T00:26:23.880Z,0
2018-07-09T00:27:25.274Z,0
2018-07-09T00:28:26.667Z,0
2018-07-09T00:29:28.044Z,0
2018-07-09T00:30:29.426Z,0
2018-07-09T00:31:30.821Z,0
2018-07-09T00:32:34.013Z,0
2018-07-09T00:33:34.415Z,0
2018-07-09T00:34:35.806Z,0
2018-07-09T00:35:37.195Z,0
2018-07-09T00:36:38.585Z,0
2018-07-09T00:37:39.979Z,0
2018-07-09T00:38:41.361Z,0
2018-07-09T00:39:43.621Z,0
2018-07-09T00:40:45.018Z,0
2018-07-09T00:41:46.395Z,0
2018-07-09T00:42:47.773Z,0
2018-07-09T00:43:49.163Z,0
2018-07-09T00:44:50.558Z,0
2018-07-09T00:45:51.938Z,0
2018-07-09T00:46:53.317Z,0
2018-07-09T00:47:54.709Z,0
2018-07-09T00:48:56.087Z,0
2018-07-09T00:49:57.472Z,0
2018-07-09T00:50:58.869Z,0
2018-07-09T00:52:00.238Z,0
2018-07-09T00:53:01.617Z,0
2018-07-09T00:54:03.012Z,0
2018-07-09T00:55:04.392Z,0
2018-07-09T00:56:05.782Z,0
2018-07-09T00:57:07.168Z,0
2018-07-09T00:58:08.560Z,0
2018-07-09T00:59:09.952Z,0
2018-07-09T01:00:11.340Z,0
2018-07-09T01:01:12.727Z,0
2018-07-09T01:02:14.119Z,0
2018-07-09T01:03:15.507Z,0
2018-07-09T01:04:16.901Z,0
2018-07-09T01:05:18.285Z,0
2018-07-09T01:06:19.670Z,0
2018-07-09T01:07:21.058Z,0
2018-07-09T01:08:22.457Z,0
2018-07-09T01:09:23.837Z,0
2018-07-09T01:10:25.224Z,0
2018-07-09T01:11:26.604Z,0
2018-07-09T01:12:27.988Z,0
2018-07-09T01:13:29.366Z,0
2018-07-09T01:14:30.757Z,0
2018-07-09T01:15:32.152Z,0
2018-07-09T01:16:33.539Z,0
2018-07-09T01:17:34.923Z,0
2018-07-09T01:18:36.312Z,0
2018-07-09T01:19:37.693Z,0
2018-07-09T01:20:39.076Z,0
2018-07-09T01:21:40.462Z,0
2018-07-09T01:22:41.844Z,0
2018-07-09T01:23:43.244Z,0
2018-07-09T01:24:44.626Z,0
2018-07-09T01:25:46.009Z,0
2018-07-09T01:26:47.393Z,0
2018-07-09T01:27:48.779Z,0
2018-07-09T01:28:50.158Z,0
2018-07-09T01:29:51.546Z,0
2018-07-09T01:30:52.933Z,0
2018-07-09T01:31:54.328Z,0
2018-07-09T01:32:55.706Z,0
2018-07-09T01:33:57.091Z,0
2018-07-09T01:34:58.473Z,0
2018-07-09T01:35:59.863Z,0
2018-07-09T01:37:01.251Z,0
2018-07-09T01:38:02.635Z,0
2018-07-09T01:39:04.029Z,0
2018-07-09T01:40:05.417Z,0
2018-07-09T01:41:06.815Z,0
2018-07-09T01:42:08.198Z,0
2018-07-09T01:43:09.584Z,0
2018-07-09T01:44:10.971Z,0
2018-07-09T01:45:12.362Z,0
2018-07-09T01:46:13.758Z,0
2018-07-09T01:47:15.148Z,0
2018-07-09T01:48:16.532Z,0
2018-07-09T01:49:17.918Z,0
2018-07-09T01:50:19.304Z,0
2018-07-09T01:51:20.702Z,0
2018-07-09T01:52:22.088Z,0
2018-07-09T01:53:23.470Z,0
2018-07-09T01:54:24.864Z,0
2018-07-09T01:55:26.240Z,0
2018-07-09T01:56:27.635Z,0
2018-07-09T01:57:29.012Z,0
2018-07-09T01:58:30.401Z,0
2018-07-09T01:59:31.784Z,0
2018-07-09T02:00:33.173Z,0
2018-07-09T02:01:34.563Z,0
2018-07-09T02:02:35.941Z,0
2018-07-09T02:03:37.335Z,0
2018-07-09T02:04:38.721Z,0
2018-07-09T02:05:40.112Z,0
2018-07-09T02:06:41.495Z,0
2018-07-09T02:07:42.877Z,0
2018-07-09T02:08:44.272Z,0
2018-07-09T02:09:45.660Z,0
2018-07-09T02:10:47.038Z,0
2018-07-09T02:11:48.425Z,0
2018-07-09T02:12:49.818Z,0
2018-07-09T02:13:51.202Z,4
2018-07-09T02:14:52.597Z,4
2018-07-09T02:15:53.982Z,4
2018-07-09T02:16:55.360Z,0
2018-07-09T02:17:56.753Z,0
2018-07-09T02:18:58.143Z,4
2018-07-09T02:19:59.517Z,4
2018-07-09T02:21:00.909Z,0
2018-07-09T02:22:02.294Z,4
2018-07-09T02:23:03.671Z,4
2018-07-09T02:24:05.057Z,4
2018-07-09T02:25:06.447Z,4
2018-07-09T02:26:07.835Z,4
2018-07-09T02:27:09.227Z,8
2018-07-09T02:28:10.609Z,8
2018-07-09T02:29:11.997Z,8
2018-07-09T02:30:13.383Z,8
2018-07-09T02:31:14.765Z,8
2018-07-09T02:32:16.158Z,12
2018-07-09T02:33:17.548Z,12
2018-07-09T02:34:18.940Z,16
2018-07-09T02:35:20.331Z,16
2018-07-09T02:36:21.713Z,16
2018-07-09T02:37:23.103Z,16
2018-07-09T02:38:24.484Z,20
2018-07-09T02:39:25.878Z,20
2018-07-09T02:40:27.274Z,24
2018-07-09T02:41:28.653Z,24
2018-07-09T02:42:30.057Z,28
2018-07-09T02:43:31.425Z,32
2018-07-09T02:44:32.815Z,32
2018-07-09T02:45:34.200Z,36
2018-07-09T02:46:35.585Z,36
2018-07-09T02:47:36.974Z,40
2018-07-09T02:48:38.360Z,44
2018-07-09T02:49:39.765Z,48
2018-07-09T02:50:41.137Z,52
2018-07-09T02:51:43.386Z,56
2018-07-09T02:52:44.775Z,60
2018-07-09T02:53:46.159Z,64
2018-07-09T02:54:47.553Z,68
2018-07-09T02:55:48.937Z,72
2018-07-09T02:56:50.321Z,80
2018-07-09T02:57:51.703Z,88
2018-07-09T02:58:53.092Z,92
2018-07-09T02:59:54.484Z,96
2018-07-09T03:00:55.901Z,104
2018-07-09T03:01:58.124Z,112
2018-07-09T03:02:59.513Z,116
2018-07-09T03:04:00.912Z,120
2018-07-09T03:05:02.298Z,132
2018-07-09T03:06:03.689Z,140
2018-07-09T03:07:05.083Z,144
2018-07-09T03:08:06.471Z,152
2018-07-09T03:09:07.857Z,164
2018-07-09T03:10:09.251Z,168
2018-07-09T03:11:10.641Z,176
2018-07-09T03:12:12.029Z,188
2018-07-09T03:13:13.415Z,192
2018-07-09T03:14:14.809Z,204
2018-07-09T03:15:16.217Z,216
2018-07-09T03:16:17.588Z,224
2018-07-09T03:17:18.979Z,232
2018-07-09T03:18:20.368Z,240
2018-07-09T03:19:21.757Z,252
2018-07-09T03:20:23.150Z,264
2018-07-09T03:21:24.534Z,276
2018-07-09T03:22:25.922Z,296
2018-07-09T03:23:27.311Z,320
2018-07-09T03:24:28.702Z,340
2018-07-09T03:25:30.089Z,360
2018-07-09T03:26:31.480Z,380
2018-07-09T03:27:32.861Z,400
2018-07-09T03:28:34.256Z,416
2018-07-09T03:29:35.680Z,436
2018-07-09T03:30:37.039Z,448
2018-07-09T03:31:38.423Z,468
2018-07-09T03:32:39.820Z,488
2018-07-09T03:33:41.212Z,512
2018-07-09T03:34:42.600Z,536
2018-07-09T03:35:43.982Z,556
2018-07-09T03:36:45.379Z,568
2018-07-09T03:37:46.767Z,588
2018-07-09T03:38:48.155Z,616
2018-07-09T03:39:49.537Z,636
2018-07-09T03:40:50.933Z,660
2018-07-09T03:41:52.319Z,688
2018-07-09T03:42:53.705Z,712
2018-07-09T03:43:55.097Z,752
2018-07-09T03:44:56.485Z,792
2018-07-09T03:45:57.864Z,820
2018-07-09T03:46:59.263Z,840
2018-07-09T03:48:00.649Z,880
2018-07-09T03:49:02.029Z,920
2018-07-09T03:50:03.421Z,1028
2018-07-09T03:51:04.815Z,1056
2018-07-09T03:52:06.190Z,1044
2018-07-09T03:53:07.584Z,1056
2018-07-09T03:54:08.971Z,1072
2018-07-09T03:55:10.352Z,1100
2018-07-09T03:56:11.746Z,1144
2018-07-09T03:57:13.139Z,1188
2018-07-09T03:58:14.530Z,1308
2018-07-09T03:59:15.923Z,1360
2018-07-09T04:00:17.315Z,1356
2018-07-09T04:01:18.703Z,1452
2018-07-09T04:02:20.173Z,1540
2018-07-09T04:03:21.440Z,1568
2018-07-09T04:04:22.827Z,1664
2018-07-09T04:05:24.222Z,1772
2018-07-09T04:06:25.616Z,1856
2018-07-09T04:07:27.007Z,1972
2018-07-09T04:08:28.399Z,1992
2018-07-09T04:09:29.790Z,2136
2018-07-09T04:10:31.171Z,2216
2018-07-09T04:11:32.577Z,2228
2018-07-09T04:12:33.967Z,2284
2018-07-09T04:13:35.360Z,2288
2018-07-09T04:14:36.751Z,2268
2018-07-09T04:15:38.135Z,2228
2018-07-09T04:16:39.530Z,2160
2018-07-09T04:17:40.918Z,2068
2018-07-09T04:18:42.307Z,2048
2018-07-09T04:19:43.697Z,2032
2018-07-09T04:20:45.095Z,2016
2018-07-09T04:21:46.481Z,2032
2018-07-09T04:22:47.863Z,1992
2018-07-09T04:23:49.266Z,1984
2018-07-09T04:24:50.657Z,2032
2018-07-09T04:25:52.043Z,2000
2018-07-09T04:26:53.428Z,1744
2018-07-09T04:27:54.822Z,1664
2018-07-09T04:28:56.218Z,1488
2018-07-09T04:29:57.600Z,1660
2018-07-09T04:30:59.000Z,1944
2018-07-09T04:32:01.054Z,1868
2018-07-09T04:33:02.441Z,1912
2018-07-09T04:34:03.839Z,2148
2018-07-09T04:35:05.228Z,2392
2018-07-09T04:36:07.478Z,2472
2018-07-09T04:37:08.863Z,2684
2018-07-09T04:38:10.260Z,2672
2018-07-09T04:39:11.637Z,2532
2018-07-09T04:40:13.037Z,2444
2018-07-09T04:41:14.421Z,2476
2018-07-09T04:42:15.817Z,2348
2018-07-09T04:43:17.223Z,2260
2018-07-09T04:44:18.591Z,2236
2018-07-09T04:45:19.977Z,2180
2018-07-09T04:46:21.366Z,1828
2018-07-09T04:47:22.755Z,1992
2018-07-09T04:48:24.149Z,2480
2018-07-09T04:49:25.547Z,3364
2018-07-09T04:50:26.936Z,3448
2018-07-09T04:51:28.330Z,3152
2018-07-09T04:52:29.732Z,3020
2018-07-09T04:53:31.139Z,3164
2018-07-09T04:54:32.510Z,3288
2018-07-09T04:55:33.908Z,3396
2018-07-09T04:56:35.296Z,3328
2018-07-09T04:57:36.692Z,3240
2018-07-09T04:58:38.081Z,3452
2018-07-09T04:59:39.476Z,3496
2018-07-09T05:00:40.863Z,3208
2018-07-09T05:01:42.261Z,2464
2018-07-09T05:02:43.654Z,2064
2018-07-09T05:03:45.051Z,3384
2018-07-09T05:04:46.437Z,2600
2018-07-09T05:05:47.825Z,2592
2018-07-09T05:06:49.217Z,3792
2018-07-09T05:07:50.605Z,4268
2018-07-09T05:08:51.993Z,4400
2018-07-09T05:09:53.389Z,4564
2018-07-09T05:10:54.785Z,4760
2018-07-09T05:11:56.183Z,5972
2018-07-09T05:12:57.590Z,7796
2018-07-09T05:13:58.978Z,7448
2018-07-09T05:15:00.376Z,7072
2018-07-09T05:16:01.770Z,9692
2018-07-09T05:17:03.163Z,8580
2018-07-09T05:18:04.551Z,5088
2018-07-09T05:19:05.944Z,4984
2018-07-09T05:20:07.333Z,5392
2018-07-09T05:21:08.728Z,4208
2018-07-09T05:22:10.122Z,2960
2018-07-09T05:23:11.522Z,2452
2018-07-09T05:24:12.918Z,2252
2018-07-09T05:25:14.306Z,2116
2018-07-09T05:26:15.711Z,1952
2018-07-09T05:27:17.105Z,2128
2018-07-09T05:28:18.501Z,2960
2018-07-09T05:29:19.902Z,4668
2018-07-09T05:30:21.290Z,5168
2018-07-09T05:31:22.710Z,5032
2018-07-09T05:32:24.090Z,4956
2018-07-09T05:33:25.487Z,4932
2018-07-09T05:34:26.883Z,4928
2018-07-09T05:35:28.266Z,4612
2018-07-09T05:36:29.667Z,4900
2018-07-09T05:37:31.065Z,5128
2018-07-09T05:38:32.455Z,5332
2018-07-09T05:39:33.859Z,5704
2018-07-09T05:40:35.252Z,6600
2018-07-09T05:41:36.644Z,10712
2018-07-09T05:42:38.039Z,16448
2018-07-09T05:43:39.437Z,20480
2018-07-09T05:44:40.825Z,23936
2018-07-09T05:45:42.220Z,23872
2018-07-09T05:46:43.622Z,24128
2018-07-09T05:47:45.038Z,23712
2018-07-09T05:48:46.415Z,22976
2018-07-09T05:49:47.804Z,21696
2018-07-09T05:50:49.206Z,21888
2018-07-09T05:51:50.601Z,20896
2018-07-09T05:52:52.000Z,20960
2018-07-09T05:53:53.396Z,20224
2018-07-09T05:54:54.801Z,20832
2018-07-09T05:55:56.199Z,21056
2018-07-09T05:56:57.596Z,25504
2018-07-09T05:57:58.993Z,27040
2018-07-09T05:59:00.439Z,27456
2018-07-09T06:00:01.761Z,23744
2018-07-09T06:01:03.157Z,18016
2018-07-09T06:02:04.557Z,12472
2018-07-09T06:03:05.959Z,10956
2018-07-09T06:04:07.361Z,17952
2018-07-09T06:05:08.763Z,17024
2018-07-09T06:06:10.161Z,13728
2018-07-09T06:07:11.555Z,12420
2018-07-09T06:08:12.966Z,13088
2018-07-09T06:09:14.359Z,11808
2018-07-09T06:10:15.761Z,13248
2018-07-09T06:11:17.261Z,10880
2018-07-09T06:12:18.564Z,8908
2018-07-09T06:13:19.969Z,9648
2018-07-09T06:14:21.380Z,8804
2018-07-09T06:15:22.784Z,9276
2018-07-09T06:16:24.185Z,10480
2018-07-09T06:17:25.590Z,11392
2018-07-09T06:18:26.992Z,12116
2018-07-09T06:19:28.489Z,13024
2018-07-09T06:20:29.786Z,13408
2018-07-09T06:21:31.192Z,13536
2018-07-09T06:22:32.600Z,13408
2018-07-09T06:23:33.998Z,13120
2018-07-09T06:24:35.410Z,11440
2018-07-09T06:25:36.820Z,11640
2018-07-09T06:26:38.222Z,12092
2018-07-09T06:27:39.624Z,10288
2018-07-09T06:28:41.023Z,11692
2018-07-09T06:29:42.422Z,10988
2018-07-09T06:30:43.826Z,12512
2018-07-09T06:31:45.220Z,12768
2018-07-09T06:32:46.625Z,13120
2018-07-09T06:33:48.029Z,12000
2018-07-09T06:34:49.431Z,9948
2018-07-09T06:35:50.841Z,10244
2018-07-09T06:36:52.230Z,11180
2018-07-09T06:37:53.633Z,11260
2018-07-09T06:38:55.033Z,11800
2018-07-09T06:39:56.431Z,11924
2018-07-09T06:40:57.840Z,11996
2018-07-09T06:41:59.238Z,7696
2018-07-09T06:43:00.650Z,10400
2018-07-09T06:44:02.044Z,11120
2018-07-09T06:45:03.446Z,11176
2018-07-09T06:46:04.854Z,10992
2018-07-09T06:47:06.254Z,11140
2018-07-09T06:48:07.650Z,11380
2018-07-09T06:49:09.043Z,11316
2018-07-09T06:50:10.504Z,12136
2018-07-09T06:51:11.867Z,12192
2018-07-09T06:52:13.276Z,12048
2018-07-09T06:53:14.658Z,12116
2018-07-09T06:54:16.067Z,11876
2018-07-09T06:55:17.468Z,11556
2018-07-09T06:56:18.858Z,11128
2018-07-09T06:57:20.267Z,10332
2018-07-09T06:58:21.659Z,10188
2018-07-09T06:59:23.062Z,10232
2018-07-09T07:00:24.463Z,9376
2018-07-09T07:01:25.870Z,8576
2018-07-09T07:02:27.350Z,8520
2018-07-09T07:03:28.673Z,10428
2018-07-09T07:04:30.079Z,10820
2018-07-09T07:05:31.479Z,10652
2018-07-09T07:06:32.875Z,10660
2018-07-09T07:07:34.287Z,10584
2018-07-09T07:08:35.713Z,9732
2018-07-09T07:09:37.082Z,7616
2018-07-09T07:10:38.487Z,7960
2018-07-09T07:11:40.735Z,8660
2018-07-09T07:12:42.137Z,9092
2018-07-09T07:13:43.540Z,9464
2018-07-09T07:14:44.932Z,8720
2018-07-09T07:15:46.840Z,8188
2018-07-09T07:16:48.538Z,8120
2018-07-09T07:17:51.162Z,9148
2018-07-09T07:18:52.549Z,11264
2018-07-09T07:19:53.947Z,11892
2018-07-09T07:20:55.503Z,11492
2018-07-09T07:21:56.997Z,13024
2018-07-09T07:22:58.390Z,14048
2018-07-09T07:23:59.787Z,13696
2018-07-09T07:25:01.189Z,13536
2018-07-09T07:26:02.583Z,4896
2018-07-09T07:27:03.976Z,11444
2018-07-09T07:28:05.381Z,12528
2018-07-09T07:29:06.780Z,10588
2018-07-09T07:30:08.177Z,9184
2018-07-09T07:31:09.579Z,6688
2018-07-09T07:32:11.647Z,6596
2018-07-09T07:33:13.063Z,6684
2018-07-09T07:34:14.545Z,6460
2018-07-09T07:35:15.945Z,6328
2018-07-09T07:36:17.351Z,5672
2018-07-09T07:37:18.750Z,5316
2018-07-09T07:38:20.154Z,5232
2018-07-09T07:39:21.603Z,4580
2018-07-09T07:40:22.950Z,4920
2018-07-09T07:41:24.346Z,4596
2018-07-09T07:42:26.586Z,4540
2018-07-09T07:43:27.984Z,4576
2018-07-09T07:44:29.390Z,4556
2018-07-09T07:45:30.792Z,4488
2018-07-09T07:46:34.858Z,4596
2018-07-09T07:47:36.248Z,4864
2018-07-09T07:48:39.061Z,4964
2018-07-09T07:49:40.463Z,5104
2018-07-09T07:50:42.729Z,5124
2018-07-09T07:51:46.276Z,5296
2018-07-09T07:52:50.325Z,4808
2018-07-09T07:53:52.897Z,5016
2018-07-09T07:54:55.217Z,5248
2018-07-09T07:55:56.593Z,5376
2018-07-09T07:57:00.631Z,6000
2018-07-09T07:58:02.029Z,5628
2018-07-09T07:59:03.432Z,6244
2018-07-09T08:00:05.398Z,6016
2018-07-09T08:01:06.803Z,5008
2018-07-09T08:02:11.434Z,4288
2018-07-09T08:03:16.929Z,3832
2018-07-09T08:04:19.993Z,3676
2018-07-09T08:05:25.221Z,3544
2018-07-09T08:06:28.373Z,3452
2018-07-09T08:07:33.643Z,3480
2018-07-09T08:08:36.076Z,3624
2018-07-09T08:09:41.362Z,3820
2018-07-09T08:10:45.938Z,4000
2018-07-09T08:11:49.259Z,4276
2018-07-09T08:13:13.740Z,4856
2018-07-09T08:13:57.596Z,4908
2018-07-09T08:14:58.988Z,4844
2018-07-09T08:16:00.378Z,5588
2018-07-09T08:17:03.233Z,5732
2018-07-09T08:18:05.463Z,5376
2018-07-09T08:19:06.858Z,6284
2018-07-09T08:20:08.332Z,6640
2018-07-09T08:21:09.743Z,6404
2018-07-09T08:22:11.130Z,6524
2018-07-09T08:23:12.527Z,6064
2018-07-09T08:24:13.919Z,6036
2018-07-09T08:25:15.393Z,6456
2018-07-09T08:26:16.715Z,6452
2018-07-09T08:27:18.107Z,6508
2018-07-09T08:28:19.499Z,6328
2018-07-09T08:29:20.897Z,5068
2018-07-09T08:30:22.279Z,7384
2018-07-09T08:31:23.832Z,5576
2018-07-09T08:32:25.090Z,5228
2018-07-09T08:33:26.487Z,5244
2018-07-09T08:34:27.881Z,5628
2018-07-09T08:35:29.279Z,5464
2018-07-09T08:36:30.785Z,5036
2018-07-09T08:37:32.172Z,4172
2018-07-09T08:38:33.559Z,3912
2018-07-09T08:39:35.595Z,4092
2018-07-09T08:40:36.997Z,4508
2018-07-09T08:41:38.391Z,6728
2018-07-09T08:42:39.790Z,4584
2018-07-09T08:43:41.185Z,5080
2018-07-09T08:44:42.593Z,4492
2018-07-09T08:45:43.995Z,3640
2018-07-09T08:46:45.392Z,3248
2018-07-09T08:47:46.798Z,4628
2018-07-09T08:48:48.192Z,5312
2018-07-09T08:49:49.582Z,3844
2018-07-09T08:50:50.984Z,3692
2018-07-09T08:51:52.374Z,3356
2018-07-09T08:52:53.771Z,2984
2018-07-09T08:53:55.159Z,2728
2018-07-09T08:54:56.557Z,2696
2018-07-09T08:56:01.315Z,2344
2018-07-09T08:57:02.707Z,2408
2018-07-09T08:58:04.089Z,2552
2018-07-09T08:59:05.492Z,2652
2018-07-09T09:00:06.879Z,2308
2018-07-09T09:01:08.269Z,1992
2018-07-09T09:02:09.659Z,1936
2018-07-09T09:03:11.047Z,2080
2018-07-09T09:04:13.394Z,2080
2018-07-09T09:05:14.785Z,1960
2018-07-09T09:06:16.173Z,2020
2018-07-09T09:07:17.576Z,2280
2018-07-09T09:08:18.972Z,2268
2018-07-09T09:09:20.391Z,2336
2018-07-09T09:10:21.833Z,2280
2018-07-09T09:11:23.184Z,2156
2018-07-09T09:12:24.576Z,2352
2018-07-09T09:13:25.972Z,2500
2018-07-09T09:14:27.360Z,2864
2018-07-09T09:15:28.756Z,2680
2018-07-09T09:16:30.204Z,2412
2018-07-09T09:17:31.542Z,2320
2018-07-09T09:18:32.935Z,2148
2018-07-09T09:19:34.289Z,2184
2018-07-09T09:20:35.680Z,2376
2018-07-09T09:21:37.064Z,2788
2018-07-09T09:22:38.460Z,2956
2018-07-09T09:23:39.863Z,4296
2018-07-09T09:24:41.242Z,5576
2018-07-09T09:25:42.660Z,4700
2018-07-09T09:26:44.054Z,3912
2018-07-09T09:27:45.449Z,3308
2018-07-09T09:28:46.840Z,3548
2018-07-09T09:29:48.257Z,3080
2018-07-09T09:30:49.647Z,2784
2018-07-09T09:31:51.035Z,2868
2018-07-09T09:32:52.441Z,2616
2018-07-09T09:33:54.431Z,2408
2018-07-09T09:34:55.832Z,2304
2018-07-09T09:35:57.230Z,2116
2018-07-09T09:36:58.614Z,1952
2018-07-09T09:38:00.015Z,1804
2018-07-09T09:39:02.242Z,1760
2018-07-09T09:40:02.746Z,2032
2018-07-09T09:41:04.131Z,2052
2018-07-09T09:42:05.529Z,1912
2018-07-09T09:43:06.988Z,1864
2018-07-09T09:44:08.318Z,1900
2018-07-09T09:45:09.701Z,1800
2018-07-09T09:46:11.102Z,1688
2018-07-09T09:47:12.490Z,1676
2018-07-09T09:48:13.890Z,1744
2018-07-09T09:49:15.315Z,1772
2018-07-09T09:50:16.687Z,1860
2018-07-09T09:51:18.080Z,1700
2018-07-09T09:52:19.479Z,1720
2018-07-09T09:53:20.873Z,1712
2018-07-09T09:54:22.269Z,1680
2018-07-09T09:55:23.663Z,1768
2018-07-09T09:56:25.061Z,1728
2018-07-09T09:57:26.450Z,1640
2018-07-09T09:58:27.848Z,1636
2018-07-09T09:59:29.241Z,1592
2018-07-09T10:00:30.660Z,1536
2018-07-09T10:01:32.035Z,1620
2018-07-09T10:02:33.434Z,1916
2018-07-09T10:03:34.826Z,2020
2018-07-09T10:04:36.222Z,1880
2018-07-09T10:05:37.620Z,1644
2018-07-09T10:06:39.011Z,1500
2018-07-09T10:07:40.424Z,1396
2018-07-09T10:08:41.864Z,1368
2018-07-09T10:09:43.201Z,1328
2018-07-09T10:10:44.600Z,1484
2018-07-09T10:11:45.990Z,1688
2018-07-09T10:12:47.410Z,1868
2018-07-09T10:13:48.801Z,2060
2018-07-09T10:14:50.201Z,2556
2018-07-09T10:15:51.594Z,2844
2018-07-09T10:16:53.044Z,3008
2018-07-09T10:17:54.383Z,2656
2018-07-09T10:18:55.774Z,2292
2018-07-09T10:19:57.172Z,1952
2018-07-09T10:20:58.573Z,1632
2018-07-09T10:21:59.973Z,1624
2018-07-09T10:23:01.387Z,1604
2018-07-09T10:24:02.793Z,1496
2018-07-09T10:25:04.143Z,1448
2018-07-09T10:26:05.534Z,1408
2018-07-09T10:27:06.927Z,1332
2018-07-09T10:28:08.317Z,1264
2018-07-09T10:29:09.711Z,1228
2018-07-09T10:30:11.109Z,1420
2018-07-09T10:31:12.494Z,1680
2018-07-09T10:32:13.893Z,1832
2018-07-09T10:33:15.279Z,1952
2018-07-09T10:34:16.676Z,2020
2018-07-09T10:35:18.078Z,2348
2018-07-09T10:36:19.487Z,2624
2018-07-09T10:37:20.887Z,2980
2018-07-09T10:38:22.281Z,2828
2018-07-09T10:39:23.662Z,2576
2018-07-09T10:40:25.062Z,2280
2018-07-09T10:41:26.454Z,2592
2018-07-09T10:42:27.848Z,2896
2018-07-09T10:43:29.234Z,2984
2018-07-09T10:44:30.627Z,2920
2018-07-09T10:45:32.028Z,2804
2018-07-09T10:46:33.413Z,2680
2018-07-09T10:47:34.807Z,2704
2018-07-09T10:48:36.200Z,2808
2018-07-09T10:49:37.592Z,2920
2018-07-09T10:50:38.984Z,3060
2018-07-09T10:51:40.377Z,3096
2018-07-09T10:52:41.776Z,3180
2018-07-09T10:53:43.167Z,3412
2018-07-09T10:54:44.560Z,3620
2018-07-09T10:55:45.942Z,3344
2018-07-09T10:56:47.339Z,2912
2018-07-09T10:57:48.732Z,2928
2018-07-09T10:58:50.122Z,3108
2018-07-09T10:59:51.516Z,2912
2018-07-09T11:00:52.945Z,3108
2018-07-09T11:01:54.256Z,3220
2018-07-09T11:02:55.652Z,3360
2018-07-09T11:03:57.052Z,3420
2018-07-09T11:04:58.442Z,3556
2018-07-09T11:05:59.836Z,3788
2018-07-09T11:07:01.241Z,3988
2018-07-09T11:08:02.622Z,4416
2018-07-09T11:09:04.011Z,5332
2018-07-09T11:10:05.415Z,6968
2018-07-09T11:11:06.804Z,7592
2018-07-09T11:12:08.199Z,5872
2018-07-09T11:13:09.585Z,6772
2018-07-09T11:14:10.991Z,7168
2018-07-09T11:15:12.377Z,8896
2018-07-09T11:16:13.784Z,9824
2018-07-09T11:17:15.177Z,10144
2018-07-09T11:18:16.571Z,10772
2018-07-09T11:19:17.968Z,7744
2018-07-09T11:20:20.333Z,9688
2018-07-09T11:21:21.725Z,7484
2018-07-09T11:22:23.117Z,6140
2018-07-09T11:23:24.519Z,4816
2018-07-09T11:24:25.901Z,4848
2018-07-09T11:25:27.311Z,6644
2018-07-09T11:26:28.701Z,5680
2018-07-09T11:27:30.089Z,4332
2018-07-09T11:28:31.477Z,4220
2018-07-09T11:29:33.436Z,3948
2018-07-09T11:30:34.838Z,7024
2018-07-09T11:31:36.227Z,9604
2018-07-09T11:32:37.620Z,13252
2018-07-09T11:33:39.013Z,13132
2018-07-09T11:34:40.421Z,12272
2018-07-09T11:35:41.806Z,9472
2018-07-09T11:36:43.215Z,14504
2018-07-09T11:37:44.608Z,8780
2018-07-09T11:38:46.000Z,8052
2018-07-09T11:39:47.434Z,15044
2018-07-09T11:40:48.788Z,5512
2018-07-09T11:41:50.192Z,3704
2018-07-09T11:42:51.589Z,2936
2018-07-09T11:43:52.985Z,4824
2018-07-09T11:44:54.380Z,3776
2018-07-09T11:45:55.769Z,3984
2018-07-09T11:46:57.168Z,3256
2018-07-09T11:47:58.557Z,2924
2018-07-09T11:48:59.957Z,2768
2018-07-09T11:50:01.342Z,2936
2018-07-09T11:51:02.740Z,3312
2018-07-09T11:52:04.204Z,3548
2018-07-09T11:53:05.540Z,13872
2018-07-09T11:54:06.942Z,95168
2018-07-09T11:55:08.341Z,94400
2018-07-09T11:56:09.749Z,92416
2018-07-09T11:57:11.142Z,98112
2018-07-09T11:58:12.540Z,39776
2018-07-09T11:59:13.944Z,11608
2018-07-09T12:00:15.337Z,66848
2018-07-09T12:01:16.733Z,47232
2018-07-09T12:02:18.139Z,94144
2018-07-09T12:03:19.544Z,83488
2018-07-09T12:04:20.951Z,83616
2018-07-09T12:05:22.342Z,52064
2018-07-09T12:06:23.741Z,16512
2018-07-09T12:07:25.143Z,19776
2018-07-09T12:08:26.552Z,7496
2018-07-09T12:09:27.954Z,93792
2018-07-09T12:10:29.347Z,5304
2018-07-09T12:11:30.779Z,5268
2018-07-09T12:12:32.145Z,9548
2018-07-09T12:13:33.551Z,11792
2018-07-09T12:14:34.948Z,6224
2018-07-09T12:15:36.337Z,6612
2018-07-09T12:16:37.750Z,4364
2018-07-09T12:17:39.146Z,9160
2018-07-09T12:18:40.544Z,8648
2018-07-09T12:19:41.937Z,7236
2018-07-09T12:20:43.338Z,6332
2018-07-09T12:21:44.767Z,7128
2018-07-09T12:22:46.101Z,5476
2018-07-09T12:23:47.500Z,9208
2018-07-09T12:24:48.904Z,7504
2018-07-09T12:25:50.304Z,3968
2018-07-09T12:26:51.711Z,3368
2018-07-09T12:27:53.099Z,30880
2018-07-09T12:28:55.407Z,7116
2018-07-09T12:29:56.809Z,9676
2018-07-09T12:30:58.196Z,6860
2018-07-09T12:31:59.604Z,5084
2018-07-09T12:33:01.007Z,4740
2018-07-09T12:34:02.411Z,4284
2018-07-09T12:35:03.795Z,4160
2018-07-09T12:36:05.209Z,3384
2018-07-09T12:37:06.591Z,4664
2018-07-09T12:38:07.999Z,2804
2018-07-09T12:39:09.395Z,4988
2018-07-09T12:40:10.799Z,6836
2018-07-09T12:41:12.218Z,14156
2018-07-09T12:42:13.615Z,13680
2018-07-09T12:43:15.014Z,26080
2018-07-09T12:44:16.402Z,5524
2018-07-09T12:45:17.804Z,5356
2018-07-09T12:46:19.205Z,6144
2018-07-09T12:47:20.600Z,5492
2018-07-09T12:48:21.997Z,5296
2018-07-09T12:49:23.396Z,4972
2018-07-09T12:50:24.792Z,4560
2018-07-09T12:51:26.190Z,4124
2018-07-09T12:52:27.586Z,4120
2018-07-09T12:53:28.983Z,4428
2018-07-09T12:54:30.384Z,3944
2018-07-09T12:55:31.777Z,3996
2018-07-09T12:56:33.184Z,3928
2018-07-09T12:57:34.578Z,4156
2018-07-09T12:58:35.980Z,4532
2018-07-09T12:59:37.411Z,4708
2018-07-09T13:00:38.783Z,4860
2018-07-09T13:01:40.192Z,4348
2018-07-09T13:02:41.596Z,4476
2018-07-09T13:03:43.001Z,7948
2018-07-09T13:04:44.385Z,9740
2018-07-09T13:05:45.794Z,14352
2018-07-09T13:06:47.185Z,4808
2018-07-09T13:07:48.581Z,3816
2018-07-09T13:08:49.980Z,3364
2018-07-09T13:09:51.371Z,3420
2018-07-09T13:10:52.774Z,3516
2018-07-09T13:11:54.157Z,3244
2018-07-09T13:12:55.558Z,4300
2018-07-09T13:13:56.962Z,3928
2018-07-09T13:14:58.350Z,3412
2018-07-09T13:15:59.749Z,3316
2018-07-09T13:17:01.148Z,4008
2018-07-09T13:18:02.541Z,4160
2018-07-09T13:19:03.938Z,3416
2018-07-09T13:20:05.343Z,3908
2018-07-09T13:21:06.745Z,3628
2018-07-09T13:22:08.137Z,2964
2018-07-09T13:23:09.541Z,3016
2018-07-09T13:24:10.951Z,3408
2018-07-09T13:25:12.348Z,3476
2018-07-09T13:26:13.750Z,3768
2018-07-09T13:27:15.133Z,3912
2018-07-09T13:28:16.528Z,3452
2018-07-09T13:29:17.926Z,3360
2018-07-09T13:30:19.326Z,3624
2018-07-09T13:31:20.721Z,3464
2018-07-09T13:32:22.122Z,3016
2018-07-09T13:33:23.524Z,3292
2018-07-09T13:34:24.953Z,3520
2018-07-09T13:35:26.340Z,3720
2018-07-09T13:36:27.728Z,3504
2018-07-09T13:37:29.131Z,3600
2018-07-09T13:38:30.535Z,3568
2018-07-09T13:39:31.935Z,3488
2018-07-09T13:40:33.322Z,3540
2018-07-09T13:41:34.728Z,3500
2018-07-09T13:42:36.123Z,3596
2018-07-09T13:43:37.529Z,3604
2018-07-09T13:44:38.923Z,3596
2018-07-09T13:45:40.322Z,3400
2018-07-09T13:46:41.718Z,3432
2018-07-09T13:47:43.113Z,4000
2018-07-09T13:48:44.516Z,4164
2018-07-09T13:49:45.916Z,3812
2018-07-09T13:50:47.314Z,3508
2018-07-09T13:51:48.722Z,3176
2018-07-09T13:52:50.116Z,3000